sensor_id;sensor_type;location;lat;lon;timestamp;P1;durP1;ratioP1;P2;durP2;ratioP2
29302;SDS011;60019;45.556;12.004;2023-01-09T00:02:56;9.27;;;6.22;;
29302;SDS011;60019;45.556;12.004;2023-01-09T00:08:58;8.75;;;5.97;;
29302;SDS011;60019;45.556;12.004;2023-01-09T00:15:00;8.15;;;6.30;;
29302;SDS011;60019;45.556;12.004;2023-01-09T00:21:02;9.07;;;6.55;;
29302;SDS011;60019;45.556;12.004;2023-01-09T00:27:04;8.05;;;6.28;;
29302;SDS011;60019;45.556;12.004;2023-01-09T00:33:06;8.38;;;5.93;;
29302;SDS011;60019;45.556;12.004;2023-01-09T00:39:08;9.50;;;6.07;;
29302;SDS011;60019;45.556;12.004;2023-01-09T00:45:12;8.30;;;5.13;;
29302;SDS011;60019;45.556;12.004;2023-01-09T00:51:15;11.23;;;6.28;;
29302;SDS011;60019;45.556;12.004;2023-01-09T00:57:18;9.57;;;6.22;;
29302;SDS011;60019;45.556;12.004;2023-01-09T01:03:20;7.13;;;5.32;;
29302;SDS011;60019;45.556;12.004;2023-01-09T01:09:22;6.78;;;5.05;;
29302;SDS011;60019;45.556;12.004;2023-01-09T01:15:24;7.22;;;5.45;;
29302;SDS011;60019;45.556;12.004;2023-01-09T01:21:29;6.40;;;4.63;;
29302;SDS011;60019;45.556;12.004;2023-01-09T01:27:30;9.10;;;5.78;;
29302;SDS011;60019;45.556;12.004;2023-01-09T01:33:32;6.40;;;4.90;;
29302;SDS011;60019;45.556;12.004;2023-01-09T01:39:34;8.25;;;5.68;;
29302;SDS011;60019;45.556;12.004;2023-01-09T01:45:36;7.45;;;5.65;;
29302;SDS011;60019;45.556;12.004;2023-01-09T01:51:40;5.93;;;4.25;;
29302;SDS011;60019;45.556;12.004;2023-01-09T01:57:45;6.05;;;4.68;;
29302;SDS011;60019;45.556;12.004;2023-01-09T02:03:48;7.28;;;5.07;;
29302;SDS011;60019;45.556;12.004;2023-01-09T02:09:51;7.47;;;5.18;;
29302;SDS011;60019;45.556;12.004;2023-01-09T02:16:03;7.82;;;5.18;;
29302;SDS011;60019;45.556;12.004;2023-01-09T02:34:21;7.07;;;5.38;;
29302;SDS011;60019;45.556;12.004;2023-01-09T02:40:27;6.70;;;4.55;;
29302;SDS011;60019;45.556;12.004;2023-01-09T02:46:30;6.32;;;4.38;;
29302;SDS011;60019;45.556;12.004;2023-01-09T02:59:07;5.45;;;4.13;;
29302;SDS011;60019;45.556;12.004;2023-01-09T03:05:21;8.48;;;4.97;;
29302;SDS011;60019;45.556;12.004;2023-01-09T03:11:25;6.20;;;4.03;;
29302;SDS011;60019;45.556;12.004;2023-01-09T03:17:39;7.18;;;4.43;;
29302;SDS011;60019;45.556;12.004;2023-01-09T03:23:53;7.20;;;4.22;;
29302;SDS011;60019;45.556;12.004;2023-01-09T03:29:55;5.25;;;3.67;;
29302;SDS011;60019;45.556;12.004;2023-01-09T03:35:57;5.28;;;3.50;;
29302;SDS011;60019;45.556;12.004;2023-01-09T03:41:59;6.07;;;3.72;;
29302;SDS011;60019;45.556;12.004;2023-01-09T03:48:01;4.38;;;3.33;;
29302;SDS011;60019;45.556;12.004;2023-01-09T03:54:03;6.25;;;3.05;;
29302;SDS011;60019;45.556;12.004;2023-01-09T04:00:05;5.25;;;3.17;;
29302;SDS011;60019;45.556;12.004;2023-01-09T04:06:12;4.80;;;3.42;;
29302;SDS011;60019;45.556;12.004;2023-01-09T04:12:14;2.90;;;2.50;;
29302;SDS011;60019;45.556;12.004;2023-01-09T04:18:16;3.00;;;2.55;;
29302;SDS011;60019;45.556;12.004;2023-01-09T04:24:18;3.90;;;2.42;;
29302;SDS011;60019;45.556;12.004;2023-01-09T04:30:19;2.30;;;2.10;;
29302;SDS011;60019;45.556;12.004;2023-01-09T04:36:21;2.47;;;1.90;;
29302;SDS011;60019;45.556;12.004;2023-01-09T04:42:23;2.92;;;2.53;;
29302;SDS011;60019;45.556;12.004;2023-01-09T04:48:25;4.00;;;2.33;;
29302;SDS011;60019;45.556;12.004;2023-01-09T04:54:27;2.70;;;2.17;;
29302;SDS011;60019;45.556;12.004;2023-01-09T05:00:28;1.85;;;1.70;;
29302;SDS011;60019;45.556;12.004;2023-01-09T05:06:31;1.60;;;1.40;;
29302;SDS011;60019;45.556;12.004;2023-01-09T05:12:34;2.22;;;1.92;;
29302;SDS011;60019;45.556;12.004;2023-01-09T05:18:36;2.08;;;1.63;;
29302;SDS011;60019;45.556;12.004;2023-01-09T05:24:37;1.63;;;1.50;;
29302;SDS011;60019;45.556;12.004;2023-01-09T05:30:39;1.70;;;1.60;;
29302;SDS011;60019;45.556;12.004;2023-01-09T05:36:41;4.03;;;2.05;;
29302;SDS011;60019;45.556;12.004;2023-01-09T05:42:43;1.85;;;1.73;;
29302;SDS011;60019;45.556;12.004;2023-01-09T05:48:45;103.90;;;61.60;;
29302;SDS011;60019;45.556;12.004;2023-01-09T05:54:47;114.35;;;62.85;;
29302;SDS011;60019;45.556;12.004;2023-01-09T06:00:50;76.35;;;43.40;;
29302;SDS011;60019;45.556;12.004;2023-01-09T06:06:52;44.25;;;28.08;;
29302;SDS011;60019;45.556;12.004;2023-01-09T06:12:54;38.20;;;20.30;;
29302;SDS011;60019;45.556;12.004;2023-01-09T06:18:56;27.45;;;14.40;;
29302;SDS011;60019;45.556;12.004;2023-01-09T06:24:58;20.65;;;11.35;;
29302;SDS011;60019;45.556;12.004;2023-01-09T06:31:00;15.52;;;8.18;;
29302;SDS011;60019;45.556;12.004;2023-01-09T06:37:01;11.77;;;7.30;;
29302;SDS011;60019;45.556;12.004;2023-01-09T06:43:03;13.45;;;7.28;;
29302;SDS011;60019;45.556;12.004;2023-01-09T06:49:05;14.57;;;8.10;;
29302;SDS011;60019;45.556;12.004;2023-01-09T06:55:07;31.15;;;8.35;;
29302;SDS011;60019;45.556;12.004;2023-01-09T07:01:09;17.17;;;7.85;;
29302;SDS011;60019;45.556;12.004;2023-01-09T07:07:11;19.25;;;8.05;;
29302;SDS011;60019;45.556;12.004;2023-01-09T07:13:12;22.73;;;7.53;;
29302;SDS011;60019;45.556;12.004;2023-01-09T07:19:14;17.95;;;7.03;;
29302;SDS011;60019;45.556;12.004;2023-01-09T07:25:16;21.65;;;7.10;;
29302;SDS011;60019;45.556;12.004;2023-01-09T07:31:18;14.93;;;6.22;;
29302;SDS011;60019;45.556;12.004;2023-01-09T07:37:20;9.55;;;5.20;;
29302;SDS011;60019;45.556;12.004;2023-01-09T07:43:22;11.98;;;6.07;;
29302;SDS011;60019;45.556;12.004;2023-01-09T07:49:23;15.98;;;5.18;;
29302;SDS011;60019;45.556;12.004;2023-01-09T07:55:25;12.07;;;5.10;;
29302;SDS011;60019;45.556;12.004;2023-01-09T08:01:27;7.90;;;4.72;;
29302;SDS011;60019;45.556;12.004;2023-01-09T08:07:29;12.43;;;4.97;;
29302;SDS011;60019;45.556;12.004;2023-01-09T08:13:31;9.80;;;4.45;;
29302;SDS011;60019;45.556;12.004;2023-01-09T08:19:33;9.15;;;4.82;;
29302;SDS011;60019;45.556;12.004;2023-01-09T08:25:47;9.10;;;4.43;;
29302;SDS011;60019;45.556;12.004;2023-01-09T08:31:49;7.35;;;3.88;;
29302;SDS011;60019;45.556;12.004;2023-01-09T08:44:46;5.15;;;3.55;;
29302;SDS011;60019;45.556;12.004;2023-01-09T08:51:07;7.07;;;3.92;;
29302;SDS011;60019;45.556;12.004;2023-01-09T08:57:09;6.88;;;4.00;;
29302;SDS011;60019;45.556;12.004;2023-01-09T09:03:10;12.85;;;4.35;;
29302;SDS011;60019;45.556;12.004;2023-01-09T09:09:12;11.50;;;4.50;;
29302;SDS011;60019;45.556;12.004;2023-01-09T09:15:14;6.28;;;4.15;;
29302;SDS011;60019;45.556;12.004;2023-01-09T09:21:19;8.50;;;4.00;;
29302;SDS011;60019;45.556;12.004;2023-01-09T09:27:21;7.03;;;3.70;;
29302;SDS011;60019;45.556;12.004;2023-01-09T09:33:23;4.85;;;4.03;;
29302;SDS011;60019;45.556;12.004;2023-01-09T09:39:25;6.13;;;3.83;;
29302;SDS011;60019;45.556;12.004;2023-01-09T09:45:40;4.22;;;3.25;;
29302;SDS011;60019;45.556;12.004;2023-01-09T09:58:01;6.97;;;4.13;;
29302;SDS011;60019;45.556;12.004;2023-01-09T10:04:05;3.53;;;2.97;;
29302;SDS011;60019;45.556;12.004;2023-01-09T10:10:14;5.80;;;3.60;;
29302;SDS011;60019;45.556;12.004;2023-01-09T10:35:34;4.25;;;3.05;;
29302;SDS011;60019;45.556;12.004;2023-01-09T10:41:38;6.47;;;3.00;;
29302;SDS011;60019;45.556;12.004;2023-01-09T10:47:41;4.63;;;3.25;;
29302;SDS011;60019;45.556;12.004;2023-01-09T10:53:44;5.18;;;3.40;;
29302;SDS011;60019;45.556;12.004;2023-01-09T10:59:48;3.75;;;3.30;;
29302;SDS011;60019;45.556;12.004;2023-01-09T11:05:50;5.20;;;3.15;;
29302;SDS011;60019;45.556;12.004;2023-01-09T11:11:52;4.82;;;3.67;;
29302;SDS011;60019;45.556;12.004;2023-01-09T11:17:56;4.43;;;3.40;;
29302;SDS011;60019;45.556;12.004;2023-01-09T12:02:46;83.47;;;49.78;;
29302;SDS011;60019;45.556;12.004;2023-01-09T12:09:03;73.22;;;41.10;;
29302;SDS011;60019;45.556;12.004;2023-01-09T12:52:27;14.63;;;7.93;;
29302;SDS011;60019;45.556;12.004;2023-01-09T13:04:41;7.05;;;5.20;;
29302;SDS011;60019;45.556;12.004;2023-01-09T13:10:52;6.13;;;4.72;;
29302;SDS011;60019;45.556;12.004;2023-01-09T13:16:56;6.10;;;4.93;;
29302;SDS011;60019;45.556;12.004;2023-01-09T13:22:59;6.30;;;4.70;;
29302;SDS011;60019;45.556;12.004;2023-01-09T13:35:12;5.68;;;4.80;;
29302;SDS011;60019;45.556;12.004;2023-01-09T13:41:15;9.90;;;5.05;;
29302;SDS011;60019;45.556;12.004;2023-01-09T13:47:36;8.27;;;6.10;;
29302;SDS011;60019;45.556;12.004;2023-01-09T13:53:43;9.45;;;5.57;;
29302;SDS011;60019;45.556;12.004;2023-01-09T13:59:48;6.93;;;5.28;;
29302;SDS011;60019;45.556;12.004;2023-01-09T14:12:01;6.85;;;5.50;;
29302;SDS011;60019;45.556;12.004;2023-01-09T14:18:05;7.35;;;5.65;;
29302;SDS011;60019;45.556;12.004;2023-01-09T14:24:08;7.03;;;5.25;;
29302;SDS011;60019;45.556;12.004;2023-01-09T14:30:16;17.48;;;10.60;;
29302;SDS011;60019;45.556;12.004;2023-01-09T14:36:18;26.80;;;13.10;;
29302;SDS011;60019;45.556;12.004;2023-01-09T14:42:23;22.25;;;11.73;;
29302;SDS011;60019;45.556;12.004;2023-01-09T14:48:26;19.67;;;10.13;;
29302;SDS011;60019;45.556;12.004;2023-01-09T14:54:30;14.43;;;9.35;;
29302;SDS011;60019;45.556;12.004;2023-01-09T15:00:33;12.65;;;8.35;;
29302;SDS011;60019;45.556;12.004;2023-01-09T15:06:36;14.27;;;8.85;;
29302;SDS011;60019;45.556;12.004;2023-01-09T15:12:42;11.05;;;7.65;;
29302;SDS011;60019;45.556;12.004;2023-01-09T15:18:46;11.68;;;7.50;;
29302;SDS011;60019;45.556;12.004;2023-01-09T15:24:48;10.65;;;6.88;;
29302;SDS011;60019;45.556;12.004;2023-01-09T15:32:17;6.18;;;5.10;;
29302;SDS011;60019;45.556;12.004;2023-01-09T15:38:22;7.10;;;3.97;;
29302;SDS011;60019;45.556;12.004;2023-01-09T15:44:26;7.22;;;3.83;;
29302;SDS011;60019;45.556;12.004;2023-01-09T15:50:30;4.60;;;3.42;;
29302;SDS011;60019;45.556;12.004;2023-01-09T15:56:31;11.48;;;4.47;;
29302;SDS011;60019;45.556;12.004;2023-01-09T16:02:35;4.10;;;2.38;;
29302;SDS011;60019;45.556;12.004;2023-01-09T16:08:55;1.80;;;1.70;;
29302;SDS011;60019;45.556;12.004;2023-01-09T16:14:59;2.10;;;1.52;;
29302;SDS011;60019;45.556;12.004;2023-01-09T16:21:02;1.83;;;1.58;;
29302;SDS011;60019;45.556;12.004;2023-01-09T16:27:21;3.10;;;2.10;;
29302;SDS011;60019;45.556;12.004;2023-01-09T16:33:25;3.17;;;2.00;;
29302;SDS011;60019;45.556;12.004;2023-01-09T16:39:27;2.60;;;1.98;;
29302;SDS011;60019;45.556;12.004;2023-01-09T16:45:39;2.88;;;2.00;;
29302;SDS011;60019;45.556;12.004;2023-01-09T16:51:41;3.33;;;2.22;;
29302;SDS011;60019;45.556;12.004;2023-01-09T16:57:43;9.10;;;5.57;;
29302;SDS011;60019;45.556;12.004;2023-01-09T17:03:45;11.07;;;5.85;;
29302;SDS011;60019;45.556;12.004;2023-01-09T17:09:47;8.55;;;5.30;;
29302;SDS011;60019;45.556;12.004;2023-01-09T17:15:50;6.38;;;4.53;;
29302;SDS011;60019;45.556;12.004;2023-01-09T17:21:52;5.63;;;4.60;;
29302;SDS011;60019;45.556;12.004;2023-01-09T17:27:54;5.07;;;4.20;;
29302;SDS011;60019;45.556;12.004;2023-01-09T17:34:14;6.22;;;4.70;;
29302;SDS011;60019;45.556;12.004;2023-01-09T17:40:17;10.18;;;9.18;;
29302;SDS011;60019;45.556;12.004;2023-01-09T17:52:27;9.13;;;6.20;;
29302;SDS011;60019;45.556;12.004;2023-01-09T17:58:29;11.35;;;5.80;;
29302;SDS011;60019;45.556;12.004;2023-01-09T18:04:31;7.68;;;5.78;;
29302;SDS011;60019;45.556;12.004;2023-01-09T18:10:33;8.90;;;6.43;;
29302;SDS011;60019;45.556;12.004;2023-01-09T18:16:34;10.48;;;5.63;;
29302;SDS011;60019;45.556;12.004;2023-01-09T18:22:37;10.13;;;5.90;;
29302;SDS011;60019;45.556;12.004;2023-01-09T18:28:39;14.30;;;6.10;;
29302;SDS011;60019;45.556;12.004;2023-01-09T18:34:40;20.13;;;7.45;;
29302;SDS011;60019;45.556;12.004;2023-01-09T18:40:42;10.32;;;6.65;;
29302;SDS011;60019;45.556;12.004;2023-01-09T18:46:46;18.13;;;7.53;;
29302;SDS011;60019;45.556;12.004;2023-01-09T18:52:48;11.57;;;6.75;;
29302;SDS011;60019;45.556;12.004;2023-01-09T18:58:53;14.52;;;8.20;;
29302;SDS011;60019;45.556;12.004;2023-01-09T19:04:56;22.73;;;12.05;;
29302;SDS011;60019;45.556;12.004;2023-01-09T19:10:58;23.35;;;13.82;;
29302;SDS011;60019;45.556;12.004;2023-01-09T19:17:00;19.33;;;13.27;;
29302;SDS011;60019;45.556;12.004;2023-01-09T19:23:02;18.27;;;12.25;;
29302;SDS011;60019;45.556;12.004;2023-01-09T19:29:04;17.90;;;10.07;;
29302;SDS011;60019;45.556;12.004;2023-01-09T19:35:06;15.55;;;10.65;;
29302;SDS011;60019;45.556;12.004;2023-01-09T19:41:09;12.80;;;9.63;;
29302;SDS011;60019;45.556;12.004;2023-01-09T19:47:13;15.90;;;8.95;;
29302;SDS011;60019;45.556;12.004;2023-01-09T19:53:16;12.57;;;8.50;;
29302;SDS011;60019;45.556;12.004;2023-01-09T19:59:18;13.40;;;7.63;;
29302;SDS011;60019;45.556;12.004;2023-01-09T20:05:20;9.13;;;6.78;;
29302;SDS011;60019;45.556;12.004;2023-01-09T20:11:22;11.45;;;7.28;;
29302;SDS011;60019;45.556;12.004;2023-01-09T20:17:24;10.63;;;7.25;;
29302;SDS011;60019;45.556;12.004;2023-01-09T20:23:27;9.48;;;7.03;;
29302;SDS011;60019;45.556;12.004;2023-01-09T20:29:32;8.88;;;6.63;;
29302;SDS011;60019;45.556;12.004;2023-01-09T20:35:34;6.88;;;5.40;;
29302;SDS011;60019;45.556;12.004;2023-01-09T20:41:36;10.02;;;6.43;;
29302;SDS011;60019;45.556;12.004;2023-01-09T20:47:38;8.32;;;6.15;;
29302;SDS011;60019;45.556;12.004;2023-01-09T20:53:43;9.45;;;6.40;;
29302;SDS011;60019;45.556;12.004;2023-01-09T20:59:45;7.22;;;5.40;;
29302;SDS011;60019;45.556;12.004;2023-01-09T21:05:47;7.50;;;6.00;;
29302;SDS011;60019;45.556;12.004;2023-01-09T21:11:49;8.25;;;5.40;;
29302;SDS011;60019;45.556;12.004;2023-01-09T21:17:51;7.95;;;5.85;;
29302;SDS011;60019;45.556;12.004;2023-01-09T21:23:56;9.48;;;6.00;;
29302;SDS011;60019;45.556;12.004;2023-01-09T21:29:58;8.80;;;6.90;;
29302;SDS011;60019;45.556;12.004;2023-01-09T21:35:59;10.13;;;7.68;;
29302;SDS011;60019;45.556;12.004;2023-01-09T21:42:01;16.38;;;10.65;;
29302;SDS011;60019;45.556;12.004;2023-01-09T21:54:23;15.73;;;9.32;;
29302;SDS011;60019;45.556;12.004;2023-01-09T22:00:25;12.68;;;8.35;;
29302;SDS011;60019;45.556;12.004;2023-01-09T22:06:27;11.38;;;7.35;;
29302;SDS011;60019;45.556;12.004;2023-01-09T22:12:29;10.43;;;7.35;;
29302;SDS011;60019;45.556;12.004;2023-01-09T22:18:32;11.00;;;7.07;;
29302;SDS011;60019;45.556;12.004;2023-01-09T22:24:34;8.73;;;6.78;;
29302;SDS011;60019;45.556;12.004;2023-01-09T22:30:39;8.32;;;6.65;;
29302;SDS011;60019;45.556;12.004;2023-01-09T22:36:41;8.68;;;7.18;;
29302;SDS011;60019;45.556;12.004;2023-01-09T22:42:43;9.02;;;6.38;;
29302;SDS011;60019;45.556;12.004;2023-01-09T22:48:45;6.82;;;5.95;;
29302;SDS011;60019;45.556;12.004;2023-01-09T22:54:47;10.30;;;7.10;;
29302;SDS011;60019;45.556;12.004;2023-01-09T23:00:49;6.60;;;5.75;;
29302;SDS011;60019;45.556;12.004;2023-01-09T23:06:51;7.93;;;5.95;;
29302;SDS011;60019;45.556;12.004;2023-01-09T23:12:53;8.43;;;6.68;;
29302;SDS011;60019;45.556;12.004;2023-01-09T23:18:55;7.00;;;5.65;;
29302;SDS011;60019;45.556;12.004;2023-01-09T23:24:56;5.97;;;5.35;;
29302;SDS011;60019;45.556;12.004;2023-01-09T23:30:58;6.35;;;5.65;;
29302;SDS011;60019;45.556;12.004;2023-01-09T23:37:00;5.85;;;5.00;;
29302;SDS011;60019;45.556;12.004;2023-01-09T23:43:03;6.70;;;5.38;;
29302;SDS011;60019;45.556;12.004;2023-01-09T23:49:11;5.60;;;4.50;;
29302;SDS011;60019;45.556;12.004;2023-01-09T23:55:12;6.43;;;5.45;;
